createdAt,value
2018-05-31T00:00:23.770Z,0
2018-05-31T00:01:25.772Z,0
2018-05-31T00:02:27.783Z,0
2018-05-31T00:03:30.476Z,0
2018-05-31T00:04:32.477Z,0
2018-05-31T00:05:35.229Z,0
2018-05-31T00:06:37.240Z,0
2018-05-31T00:07:39.243Z,0
2018-05-31T00:08:41.248Z,0
2018-05-31T00:09:43.254Z,0
2018-05-31T00:10:45.259Z,0
2018-05-31T00:11:47.255Z,0
2018-05-31T00:12:49.258Z,0
2018-05-31T00:13:51.267Z,0
2018-05-31T00:14:53.268Z,0
2018-05-31T00:15:55.274Z,0
2018-05-31T00:16:57.281Z,0
2018-05-31T00:17:59.279Z,0
2018-05-31T00:19:01.297Z,0
2018-05-31T00:20:03.301Z,0
2018-05-31T00:21:05.299Z,0
2018-05-31T00:22:07.306Z,0
2018-05-31T00:23:09.307Z,0
2018-05-31T00:24:11.317Z,0
2018-05-31T00:25:13.379Z,0
2018-05-31T00:26:15.311Z,0
2018-05-31T00:27:17.323Z,0
2018-05-31T00:28:19.319Z,0
2018-05-31T00:29:21.325Z,0
2018-05-31T00:30:23.329Z,0
2018-05-31T00:31:25.330Z,0
2018-05-31T00:32:27.334Z,0
2018-05-31T00:33:29.329Z,0
2018-05-31T00:34:31.332Z,0
2018-05-31T00:35:33.341Z,0
2018-05-31T00:36:35.337Z,0
2018-05-31T00:37:37.344Z,0
2018-05-31T00:38:39.635Z,0
2018-05-31T00:39:41.634Z,0
2018-05-31T00:40:43.638Z,0
2018-05-31T00:41:46.023Z,0
2018-05-31T00:42:48.026Z,0
2018-05-31T00:43:50.036Z,0
2018-05-31T00:44:52.026Z,0
2018-05-31T00:45:54.043Z,0
2018-05-31T00:46:56.332Z,0
2018-05-31T00:47:58.335Z,0
2018-05-31T00:49:00.347Z,0
2018-05-31T00:50:02.377Z,0
2018-05-31T00:51:04.342Z,0
2018-05-31T00:52:06.342Z,0
2018-05-31T00:53:08.341Z,0
2018-05-31T00:54:10.745Z,0
2018-05-31T00:55:12.743Z,0
2018-05-31T00:56:14.747Z,0
2018-05-31T00:57:16.753Z,0
2018-05-31T00:58:19.295Z,0
2018-05-31T00:59:21.299Z,0
2018-05-31T01:00:23.306Z,0
2018-05-31T01:01:25.590Z,0
2018-05-31T01:02:27.592Z,0
2018-05-31T01:03:29.596Z,0
2018-05-31T01:04:31.598Z,0
2018-05-31T01:05:33.603Z,0
2018-05-31T01:06:35.998Z,0
2018-05-31T01:07:37.996Z,0
2018-05-31T01:08:40.005Z,0
2018-05-31T01:09:42.005Z,0
2018-05-31T01:10:44.014Z,0
2018-05-31T01:11:46.020Z,0
2018-05-31T01:12:48.329Z,0
2018-05-31T01:13:50.330Z,0
2018-05-31T01:14:52.651Z,0
2018-05-31T01:15:55.042Z,0
2018-05-31T01:16:57.054Z,0
2018-05-31T01:17:59.441Z,0
2018-05-31T01:19:01.445Z,0
2018-05-31T01:20:03.437Z,0
2018-05-31T01:21:05.745Z,0
2018-05-31T01:22:07.747Z,0
2018-05-31T01:23:09.761Z,0
2018-05-31T01:24:11.767Z,0
2018-05-31T01:25:14.484Z,0
2018-05-31T01:26:17.236Z,0
2018-05-31T01:27:19.236Z,0
2018-05-31T01:28:21.233Z,0
2018-05-31T01:29:23.628Z,0
2018-05-31T01:30:25.634Z,0
2018-05-31T01:31:27.635Z,0
2018-05-31T01:32:29.634Z,0
2018-05-31T01:33:31.950Z,0
2018-05-31T01:34:33.953Z,0
2018-05-31T01:35:35.962Z,0
2018-05-31T01:36:38.255Z,0
2018-05-31T01:37:40.254Z,0
2018-05-31T01:38:42.642Z,0
2018-05-31T01:39:44.651Z,0
2018-05-31T01:40:46.659Z,0
2018-05-31T01:41:48.645Z,0
2018-05-31T01:42:50.655Z,0
2018-05-31T01:43:52.663Z,0
2018-05-31T01:44:54.666Z,0
2018-05-31T01:45:56.674Z,0
2018-05-31T01:46:58.688Z,0
2018-05-31T01:48:00.691Z,0
2018-05-31T01:49:02.990Z,0
2018-05-31T01:50:04.993Z,0
2018-05-31T01:51:07.387Z,0
2018-05-31T01:52:09.388Z,0
2018-05-31T01:53:11.393Z,0
2018-05-31T01:54:13.688Z,0
2018-05-31T01:55:15.692Z,0
2018-05-31T01:56:17.684Z,0
2018-05-31T01:57:19.691Z,0
2018-05-31T01:58:21.697Z,0
2018-05-31T01:59:23.985Z,0
2018-05-31T02:00:26.299Z,0
2018-05-31T02:01:28.309Z,0
2018-05-31T02:02:30.322Z,0
2018-05-31T02:03:32.325Z,0
2018-05-31T02:04:34.330Z,0
2018-05-31T02:05:36.329Z,0
2018-05-31T02:06:38.331Z,0
2018-05-31T02:07:40.324Z,0
2018-05-31T02:08:42.325Z,0
2018-05-31T02:09:44.340Z,0
2018-05-31T02:10:46.341Z,0
2018-05-31T02:11:48.345Z,0
2018-05-31T02:12:50.604Z,0
2018-05-31T02:13:52.608Z,0
2018-05-31T02:14:54.605Z,0
2018-05-31T02:15:56.997Z,0
2018-05-31T02:16:59.381Z,0
2018-05-31T02:18:01.420Z,0
2018-05-31T02:19:03.669Z,0
2018-05-31T02:20:05.686Z,0
2018-05-31T02:21:08.014Z,0
2018-05-31T02:22:10.008Z,0
2018-05-31T02:23:12.013Z,0
2018-05-31T02:24:14.323Z,0
2018-05-31T02:25:16.325Z,0
2018-05-31T02:26:18.325Z,0
2018-05-31T02:27:20.329Z,0
2018-05-31T02:28:22.335Z,0
2018-05-31T02:29:24.339Z,0
2018-05-31T02:30:26.927Z,0
2018-05-31T02:31:28.938Z,0
2018-05-31T02:32:30.944Z,0
2018-05-31T02:33:33.519Z,0
2018-05-31T02:34:35.526Z,0
2018-05-31T02:35:37.521Z,0
2018-05-31T02:36:39.524Z,0
2018-05-31T02:37:41.529Z,0
2018-05-31T02:38:43.526Z,0
2018-05-31T02:39:45.534Z,0
2018-05-31T02:40:47.909Z,0
2018-05-31T02:41:50.298Z,0
2018-05-31T02:42:52.306Z,0
2018-05-31T02:43:54.308Z,0
2018-05-31T02:44:56.306Z,0
2018-05-31T02:45:58.302Z,1
2018-05-31T02:47:00.307Z,1
2018-05-31T02:48:02.620Z,1
2018-05-31T02:49:04.628Z,1
2018-05-31T02:50:06.625Z,1
2018-05-31T02:51:09.010Z,1
2018-05-31T02:52:11.021Z,1
2018-05-31T02:53:13.023Z,1
2018-05-31T02:54:15.022Z,1
2018-05-31T02:55:17.016Z,1
2018-05-31T02:56:19.023Z,2
2018-05-31T02:57:21.027Z,2
2018-05-31T02:58:23.031Z,2
2018-05-31T02:59:25.033Z,2
2018-05-31T03:00:27.038Z,2
2018-05-31T03:01:29.037Z,2
2018-05-31T03:02:31.035Z,2
2018-05-31T03:03:33.036Z,3
2018-05-31T03:04:35.045Z,3
2018-05-31T03:05:37.427Z,3
2018-05-31T03:06:39.422Z,3
2018-05-31T03:07:41.460Z,3
2018-05-31T03:08:43.723Z,4
2018-05-31T03:09:45.725Z,4
2018-05-31T03:10:48.119Z,4
2018-05-31T03:11:51.007Z,4
2018-05-31T03:12:53.397Z,4
2018-05-31T03:13:55.771Z,5
2018-05-31T03:14:57.778Z,5
2018-05-31T03:15:59.780Z,5
2018-05-31T03:17:01.782Z,5
2018-05-31T03:18:03.793Z,5
2018-05-31T03:19:06.083Z,6
2018-05-31T03:20:08.083Z,6
2018-05-31T03:21:10.368Z,6
2018-05-31T03:22:12.376Z,6
2018-05-31T03:23:14.378Z,7
2018-05-31T03:24:16.376Z,7
2018-05-31T03:25:18.372Z,7
2018-05-31T03:26:20.666Z,7
2018-05-31T03:27:22.983Z,8
2018-05-31T03:28:24.987Z,8
2018-05-31T03:29:27.293Z,8
2018-05-31T03:30:29.669Z,9
2018-05-31T03:31:32.059Z,9
2018-05-31T03:32:34.366Z,9
2018-05-31T03:33:36.364Z,9
2018-05-31T03:34:38.362Z,10
2018-05-31T03:35:40.357Z,10
2018-05-31T03:36:42.363Z,10
2018-05-31T03:37:44.651Z,11
2018-05-31T03:38:47.033Z,11
2018-05-31T03:39:49.038Z,11
2018-05-31T03:40:51.037Z,11
2018-05-31T03:41:53.427Z,12
2018-05-31T03:42:55.427Z,12
2018-05-31T03:43:57.429Z,12
2018-05-31T03:44:59.442Z,13
2018-05-31T03:46:01.433Z,13
2018-05-31T03:47:03.435Z,13
2018-05-31T03:48:05.436Z,13
2018-05-31T03:49:08.157Z,14
2018-05-31T03:50:10.462Z,14
2018-05-31T03:51:12.459Z,14
2018-05-31T03:52:14.455Z,14
2018-05-31T03:53:16.457Z,15
2018-05-31T03:54:18.455Z,15
2018-05-31T03:55:20.463Z,15
2018-05-31T03:56:22.467Z,15
2018-05-31T03:57:24.467Z,16
2018-05-31T03:58:26.480Z,16
2018-05-31T03:59:28.480Z,16
2018-05-31T04:00:30.482Z,16
2018-05-31T04:01:32.515Z,17
2018-05-31T04:02:34.481Z,17
2018-05-31T04:03:36.492Z,17
2018-05-31T04:04:38.498Z,17
2018-05-31T04:05:41.106Z,17
2018-05-31T04:06:43.398Z,17
2018-05-31T04:07:45.684Z,17
2018-05-31T04:08:47.999Z,17
2018-05-31T04:09:50.390Z,18
2018-05-31T04:10:52.385Z,18
2018-05-31T04:11:54.387Z,18
2018-05-31T04:12:56.723Z,18
2018-05-31T04:13:58.716Z,19
2018-05-31T04:15:00.708Z,19
2018-05-31T04:16:02.710Z,19
2018-05-31T04:17:04.709Z,19
2018-05-31T04:18:06.710Z,20
2018-05-31T04:19:09.012Z,20
2018-05-31T04:20:11.031Z,20
2018-05-31T04:21:13.345Z,21
2018-05-31T04:22:15.347Z,21
2018-05-31T04:23:17.348Z,21
2018-05-31T04:24:19.348Z,21
2018-05-31T04:25:21.359Z,22
2018-05-31T04:26:23.663Z,22
2018-05-31T04:27:25.669Z,22
2018-05-31T04:28:27.677Z,22
2018-05-31T04:29:29.664Z,23
2018-05-31T04:30:31.965Z,23
2018-05-31T04:31:33.977Z,23
2018-05-31T04:32:36.362Z,23
2018-05-31T04:33:39.101Z,23
2018-05-31T04:34:41.072Z,24
2018-05-31T04:35:43.451Z,24
2018-05-31T04:36:45.775Z,24
2018-05-31T04:37:47.768Z,24
2018-05-31T04:38:49.785Z,25
2018-05-31T04:39:52.079Z,25
2018-05-31T04:40:54.776Z,25
2018-05-31T04:41:56.770Z,25
2018-05-31T04:42:58.774Z,25
2018-05-31T04:44:00.772Z,26
2018-05-31T04:45:02.776Z,26
2018-05-31T04:46:04.794Z,26
2018-05-31T04:47:06.794Z,26
2018-05-31T04:48:08.810Z,27
2018-05-31T04:49:11.423Z,27
2018-05-31T04:50:13.810Z,27
2018-05-31T04:51:15.819Z,27
2018-05-31T04:52:17.811Z,27
2018-05-31T04:53:19.825Z,28
2018-05-31T04:54:22.568Z,28
2018-05-31T04:55:25.716Z,28
2018-05-31T04:56:27.721Z,29
2018-05-31T04:57:29.723Z,29
2018-05-31T04:58:31.737Z,30
2018-05-31T04:59:33.733Z,29
2018-05-31T05:00:36.018Z,29
2018-05-31T05:01:38.031Z,30
2018-05-31T05:02:40.324Z,30
2018-05-31T05:03:42.327Z,30
2018-05-31T05:04:44.335Z,30
2018-05-31T05:05:46.338Z,31
2018-05-31T05:06:48.342Z,31
2018-05-31T05:07:50.727Z,31
2018-05-31T05:08:52.730Z,31
2018-05-31T05:09:54.743Z,32
2018-05-31T05:10:56.745Z,32
2018-05-31T05:11:58.745Z,32
2018-05-31T05:13:00.749Z,32
2018-05-31T05:14:02.751Z,32
2018-05-31T05:15:04.754Z,32
2018-05-31T05:16:06.763Z,32
2018-05-31T05:17:08.769Z,32
2018-05-31T05:18:10.772Z,32
2018-05-31T05:19:12.769Z,33
2018-05-31T05:20:14.768Z,33
2018-05-31T05:21:16.776Z,33
2018-05-31T05:22:18.777Z,33
2018-05-31T05:23:20.778Z,34
2018-05-31T05:24:22.781Z,34
2018-05-31T05:25:24.782Z,34
2018-05-31T05:26:26.810Z,34
2018-05-31T05:27:28.785Z,35
2018-05-31T05:28:30.790Z,35
2018-05-31T05:29:32.795Z,35
2018-05-31T05:30:35.088Z,35
2018-05-31T05:31:37.473Z,35
2018-05-31T05:32:39.478Z,35
2018-05-31T05:33:41.489Z,36
2018-05-31T05:34:43.500Z,36
2018-05-31T05:35:45.502Z,36
2018-05-31T05:36:47.511Z,36
2018-05-31T05:37:49.521Z,36
2018-05-31T05:38:51.527Z,37
2018-05-31T05:39:53.918Z,37
2018-05-31T05:40:56.249Z,38
2018-05-31T05:41:58.288Z,38
2018-05-31T05:43:00.282Z,38
2018-05-31T05:44:02.975Z,39
2018-05-31T05:45:04.985Z,38
2018-05-31T05:46:06.993Z,38
2018-05-31T05:47:09.002Z,38
2018-05-31T05:48:11.001Z,39
2018-05-31T05:49:13.018Z,39
2018-05-31T05:50:15.021Z,39
2018-05-31T05:51:17.025Z,39
2018-05-31T05:52:19.053Z,39
2018-05-31T05:53:21.057Z,39
2018-05-31T05:54:23.071Z,40
2018-05-31T05:55:25.083Z,40
2018-05-31T05:56:27.145Z,40
2018-05-31T05:57:29.400Z,40
2018-05-31T05:58:31.414Z,40
2018-05-31T05:59:33.419Z,41
2018-05-31T06:00:35.428Z,41
2018-05-31T06:01:37.727Z,41
2018-05-31T06:02:40.044Z,41
2018-05-31T06:03:42.051Z,42
2018-05-31T06:04:44.073Z,42
2018-05-31T06:05:46.073Z,43
2018-05-31T06:06:48.090Z,42
2018-05-31T06:07:50.100Z,43
2018-05-31T06:08:52.406Z,43
2018-05-31T06:09:54.497Z,43
2018-05-31T06:10:56.811Z,43
2018-05-31T06:11:58.820Z,44
2018-05-31T06:13:00.829Z,44
2018-05-31T06:14:02.840Z,44
2018-05-31T06:15:04.851Z,44
2018-05-31T06:16:07.167Z,44
2018-05-31T06:17:09.178Z,45
2018-05-31T06:18:11.570Z,45
2018-05-31T06:19:13.576Z,45
2018-05-31T06:20:15.590Z,45
2018-05-31T06:21:17.612Z,45
2018-05-31T06:22:19.626Z,45
2018-05-31T06:23:21.627Z,45
2018-05-31T06:24:23.942Z,45
2018-05-31T06:25:25.955Z,46
2018-05-31T06:26:28.041Z,46
2018-05-31T06:27:29.974Z,46
2018-05-31T06:28:32.269Z,46
2018-05-31T06:29:34.282Z,46
2018-05-31T06:30:36.283Z,46
2018-05-31T06:31:39.055Z,46
2018-05-31T06:32:41.391Z,46
2018-05-31T06:33:43.704Z,46
2018-05-31T06:34:45.715Z,46
2018-05-31T06:35:48.000Z,46
2018-05-31T06:36:50.010Z,46
2018-05-31T06:37:52.007Z,47
2018-05-31T06:38:54.013Z,47
2018-05-31T06:39:56.013Z,47
2018-05-31T06:40:58.018Z,47
2018-05-31T06:42:00.041Z,47
2018-05-31T06:43:02.452Z,47
2018-05-31T06:44:04.452Z,47
2018-05-31T06:45:06.461Z,47
2018-05-31T06:46:08.469Z,47
2018-05-31T06:47:10.484Z,47
2018-05-31T06:48:12.802Z,48
2018-05-31T06:49:14.806Z,48
2018-05-31T06:50:16.817Z,48
2018-05-31T06:51:18.818Z,48
2018-05-31T06:52:21.221Z,49
2018-05-31T06:53:23.614Z,49
2018-05-31T06:54:25.652Z,49
2018-05-31T06:55:27.911Z,49
2018-05-31T06:56:29.925Z,49
2018-05-31T06:57:31.936Z,49
2018-05-31T06:58:33.952Z,49
2018-05-31T06:59:35.958Z,49
2018-05-31T07:00:37.977Z,49
2018-05-31T07:01:39.978Z,50
2018-05-31T07:02:41.988Z,51
2018-05-31T07:03:43.990Z,50
2018-05-31T07:04:46.009Z,51
2018-05-31T07:05:48.294Z,51
2018-05-31T07:06:50.637Z,51
2018-05-31T07:07:52.601Z,51
2018-05-31T07:08:54.609Z,52
2018-05-31T07:09:56.621Z,52
2018-05-31T07:10:58.628Z,52
2018-05-31T07:12:00.632Z,52
2018-05-31T07:13:02.657Z,52
2018-05-31T07:14:04.654Z,52
2018-05-31T07:15:06.670Z,53
2018-05-31T07:16:08.972Z,53
2018-05-31T07:17:10.977Z,53
2018-05-31T07:18:13.274Z,53
2018-05-31T07:19:15.280Z,53
2018-05-31T07:20:17.576Z,54
2018-05-31T07:21:20.246Z,54
2018-05-31T07:22:22.639Z,54
2018-05-31T07:23:24.653Z,54
2018-05-31T07:24:26.654Z,54
2018-05-31T07:25:28.662Z,54
2018-05-31T07:26:30.958Z,55
2018-05-31T07:27:33.260Z,55
2018-05-31T07:28:35.271Z,55
2018-05-31T07:29:37.275Z,55
2018-05-31T07:30:39.293Z,55
2018-05-31T07:31:41.693Z,56
2018-05-31T07:32:43.993Z,56
2018-05-31T07:33:45.999Z,56
2018-05-31T07:34:48.007Z,56
2018-05-31T07:35:50.022Z,56
2018-05-31T07:36:52.020Z,57
2018-05-31T07:37:54.030Z,57
2018-05-31T07:38:56.432Z,57
2018-05-31T07:39:58.817Z,57
2018-05-31T07:41:01.115Z,58
2018-05-31T07:42:03.131Z,58
2018-05-31T07:43:05.142Z,58
2018-05-31T07:44:07.143Z,58
2018-05-31T07:45:09.154Z,59
2018-05-31T07:46:11.170Z,59
2018-05-31T07:47:13.180Z,60
2018-05-31T07:48:15.576Z,60
2018-05-31T07:49:17.593Z,61
2018-05-31T07:50:19.893Z,61
2018-05-31T07:51:21.916Z,61
2018-05-31T07:52:24.197Z,62
2018-05-31T07:53:26.211Z,62
2018-05-31T07:54:28.222Z,62
2018-05-31T07:55:30.524Z,63
2018-05-31T07:56:32.528Z,63
2018-05-31T07:57:34.539Z,63
2018-05-31T07:58:37.220Z,63
2018-05-31T07:59:39.229Z,63
2018-05-31T08:00:41.253Z,64
2018-05-31T08:01:43.547Z,64
2018-05-31T08:02:45.566Z,64
2018-05-31T08:03:47.577Z,64
2018-05-31T08:04:49.571Z,64
2018-05-31T08:05:51.904Z,64
2018-05-31T08:06:54.287Z,65
2018-05-31T08:07:56.301Z,65
2018-05-31T08:08:58.614Z,65
2018-05-31T08:10:00.624Z,66
2018-05-31T08:11:02.928Z,67
2018-05-31T08:12:04.929Z,67
2018-05-31T08:13:06.939Z,67
2018-05-31T08:14:09.238Z,68
2018-05-31T08:15:11.555Z,68
2018-05-31T08:16:13.562Z,68
2018-05-31T08:17:15.582Z,69
2018-05-31T08:18:17.590Z,69
2018-05-31T08:19:19.617Z,70
2018-05-31T08:20:21.617Z,70
2018-05-31T08:21:24.019Z,70
2018-05-31T08:22:26.034Z,71
2018-05-31T08:23:28.044Z,72
2018-05-31T08:24:30.055Z,88
2018-05-31T08:25:32.067Z,131
2018-05-31T08:26:34.653Z,154
2018-05-31T08:27:36.675Z,145
2018-05-31T08:28:38.674Z,153
2018-05-31T08:29:40.688Z,153
2018-05-31T08:30:42.712Z,151
2018-05-31T08:31:44.828Z,161
2018-05-31T08:32:47.201Z,155
2018-05-31T08:33:49.212Z,160
2018-05-31T08:34:51.222Z,153
2018-05-31T08:35:53.242Z,188
2018-05-31T08:36:55.258Z,338
2018-05-31T08:37:57.267Z,392
2018-05-31T08:38:59.573Z,397
2018-05-31T08:40:01.584Z,438
2018-05-31T08:41:03.630Z,391
2018-05-31T08:42:05.690Z,384
2018-05-31T08:43:07.738Z,444
2018-05-31T08:44:09.819Z,420
2018-05-31T08:45:11.878Z,379
2018-05-31T08:46:14.223Z,378
2018-05-31T08:47:16.279Z,365
2018-05-31T08:48:18.362Z,336
2018-05-31T08:49:20.429Z,386
2018-05-31T08:50:22.474Z,406
2018-05-31T08:51:24.536Z,389
2018-05-31T08:52:26.592Z,396
2018-05-31T08:53:28.652Z,407
2018-05-31T08:54:30.713Z,439
2018-05-31T08:55:33.145Z,432
2018-05-31T08:56:35.208Z,421
2018-05-31T08:57:37.264Z,433
2018-05-31T08:58:39.318Z,458
2018-05-31T08:59:41.381Z,437
2018-05-31T09:00:43.441Z,413
2018-05-31T09:01:45.781Z,406
2018-05-31T09:02:47.844Z,444
2018-05-31T09:03:49.900Z,409
2018-05-31T09:04:52.336Z,437
2018-05-31T09:05:54.966Z,449
2018-05-31T09:06:57.030Z,482
2018-05-31T09:07:59.083Z,486
2018-05-31T09:09:01.155Z,465
2018-05-31T09:10:03.215Z,480
2018-05-31T09:11:05.261Z,461
2018-05-31T09:12:07.319Z,453
2018-05-31T09:13:09.371Z,392
2018-05-31T09:14:11.430Z,319
2018-05-31T09:15:13.871Z,339
2018-05-31T09:16:16.199Z,405
2018-05-31T09:17:18.573Z,378
2018-05-31T09:18:20.619Z,297
2018-05-31T09:19:22.677Z,280
2018-05-31T09:20:24.736Z,283
2018-05-31T09:21:26.798Z,281
2018-05-31T09:22:28.854Z,288
2018-05-31T09:23:30.911Z,329
2018-05-31T09:24:32.973Z,380
2018-05-31T09:25:35.024Z,417
2018-05-31T09:26:37.365Z,363
2018-05-31T09:27:39.428Z,323
2018-05-31T09:28:41.490Z,406
2018-05-31T09:29:43.848Z,499
2018-05-31T09:30:45.903Z,490
2018-05-31T09:31:48.250Z,461
2018-05-31T09:32:50.698Z,496
2018-05-31T09:33:52.759Z,508
2018-05-31T09:34:54.816Z,486
2018-05-31T09:35:56.879Z,516
2018-05-31T09:36:59.214Z,520
2018-05-31T09:38:01.592Z,488
2018-05-31T09:39:03.964Z,479
2018-05-31T09:40:06.077Z,495
2018-05-31T09:41:08.156Z,478
2018-05-31T09:42:10.473Z,486
2018-05-31T09:43:12.537Z,488
2018-05-31T09:44:14.604Z,480
2018-05-31T09:45:16.666Z,466
2018-05-31T09:46:19.121Z,467
2018-05-31T09:47:21.179Z,429
2018-05-31T09:48:23.629Z,419
2018-05-31T09:49:26.041Z,462
2018-05-31T09:50:28.942Z,480
2018-05-31T09:51:31.311Z,461
2018-05-31T09:52:33.421Z,466
2018-05-31T09:53:35.488Z,492
2018-05-31T09:54:37.552Z,458
2018-05-31T09:55:40.613Z,452
2018-05-31T09:56:43.000Z,467
2018-05-31T09:57:45.065Z,479
2018-05-31T09:58:48.072Z,466
2018-05-31T09:59:50.418Z,465
2018-05-31T10:00:52.498Z,457
2018-05-31T10:01:54.581Z,405
2018-05-31T10:02:57.009Z,478
2018-05-31T10:03:59.073Z,500
2018-05-31T10:05:01.139Z,461
2018-05-31T10:06:03.198Z,464
2018-05-31T10:07:05.269Z,491
2018-05-31T10:08:07.329Z,490
2018-05-31T10:09:09.387Z,475
2018-05-31T10:10:11.454Z,448
2018-05-31T10:11:13.518Z,483
2018-05-31T10:12:15.868Z,511
2018-05-31T10:13:18.253Z,511
2018-05-31T10:14:20.441Z,487
2018-05-31T10:15:22.530Z,470
2018-05-31T10:16:24.663Z,483
2018-05-31T10:17:26.736Z,452
2018-05-31T10:18:28.870Z,429
2018-05-31T10:19:30.941Z,460
2018-05-31T10:20:33.054Z,155
2018-05-31T10:21:36.174Z,150
2018-05-31T10:22:38.342Z,143
2018-05-31T10:23:40.537Z,146
2018-05-31T10:24:42.602Z,165
2018-05-31T10:25:44.773Z,480
2018-05-31T10:26:47.135Z,493
2018-05-31T10:27:49.197Z,632
2018-05-31T10:28:51.932Z,592
2018-05-31T10:29:53.988Z,568
2018-05-31T10:30:56.056Z,582
2018-05-31T10:31:58.128Z,548
2018-05-31T10:33:00.579Z,532
2018-05-31T10:34:02.653Z,543
2018-05-31T10:35:04.718Z,522
2018-05-31T10:36:07.163Z,537
2018-05-31T10:37:09.226Z,535
2018-05-31T10:38:11.303Z,534
2018-05-31T10:39:13.657Z,531
2018-05-31T10:40:16.118Z,512
2018-05-31T10:41:18.170Z,503
2018-05-31T10:42:20.248Z,554
2018-05-31T10:43:23.031Z,546
2018-05-31T10:44:25.096Z,522
2018-05-31T10:45:28.587Z,500
2018-05-31T10:46:31.980Z,578
2018-05-31T10:47:35.696Z,609
2018-05-31T10:48:37.745Z,514
2018-05-31T10:49:39.811Z,500
2018-05-31T10:50:41.890Z,474
2018-05-31T10:51:43.954Z,471
2018-05-31T10:52:46.331Z,471
2018-05-31T10:53:48.442Z,462
2018-05-31T10:54:50.689Z,521
2018-05-31T10:55:52.756Z,515
2018-05-31T10:56:54.823Z,494
2018-05-31T10:57:56.934Z,536
2018-05-31T10:58:59.285Z,575
2018-05-31T11:00:01.352Z,501
2018-05-31T11:01:03.419Z,515
2018-05-31T11:02:05.496Z,132
2018-05-31T11:03:07.802Z,125
2018-05-31T11:04:09.831Z,131
2018-05-31T11:05:11.851Z,147
2018-05-31T11:06:13.883Z,151
2018-05-31T11:07:15.910Z,252
2018-05-31T11:08:17.939Z,168
2018-05-31T11:09:19.971Z,154
2018-05-31T11:10:21.997Z,439
2018-05-31T11:11:24.033Z,507
2018-05-31T11:12:26.058Z,484
2018-05-31T11:13:28.082Z,485
2018-05-31T11:14:30.107Z,509
2018-05-31T11:15:32.134Z,525
2018-05-31T11:16:34.545Z,524
2018-05-31T11:17:36.569Z,149
2018-05-31T11:18:38.594Z,200
2018-05-31T11:19:40.624Z,589
2018-05-31T11:20:42.658Z,143
2018-05-31T11:21:45.111Z,122
2018-05-31T11:22:47.098Z,117
2018-05-31T11:23:49.514Z,126
2018-05-31T11:24:51.535Z,159
2018-05-31T11:25:53.567Z,138
2018-05-31T11:26:55.593Z,171
2018-05-31T11:27:57.622Z,542
2018-05-31T11:28:59.663Z,475
2018-05-31T11:30:01.683Z,356
2018-05-31T11:31:03.720Z,177
2018-05-31T11:32:05.754Z,137
2018-05-31T11:33:08.369Z,121
2018-05-31T11:34:10.393Z,115
2018-05-31T11:35:12.425Z,109
2018-05-31T11:36:14.449Z,134
2018-05-31T11:37:16.473Z,114
2018-05-31T11:38:18.493Z,112
2018-05-31T11:39:20.809Z,115
2018-05-31T11:40:23.775Z,118
2018-05-31T11:41:25.805Z,134
2018-05-31T11:42:28.395Z,527
2018-05-31T11:43:30.713Z,527
2018-05-31T11:44:32.738Z,543
2018-05-31T11:45:34.764Z,231
2018-05-31T11:46:36.784Z,552
2018-05-31T11:47:38.795Z,200
2018-05-31T11:48:40.821Z,202
2018-05-31T11:49:42.843Z,400
2018-05-31T11:50:44.860Z,483
2018-05-31T11:51:47.266Z,547
2018-05-31T11:52:49.284Z,589
2018-05-31T11:53:51.310Z,585
2018-05-31T11:54:53.331Z,579
2018-05-31T11:55:55.354Z,152
2018-05-31T11:56:57.394Z,516
2018-05-31T11:57:59.421Z,539
2018-05-31T11:59:01.733Z,538
2018-05-31T12:00:03.756Z,538
2018-05-31T12:01:06.168Z,515
2018-05-31T12:02:08.187Z,487
2018-05-31T12:03:10.210Z,499
2018-05-31T12:04:12.245Z,519
2018-05-31T12:05:14.269Z,532
2018-05-31T12:06:16.291Z,542
2018-05-31T12:07:18.313Z,553
2018-05-31T12:08:20.354Z,280
2018-05-31T12:09:22.358Z,361
2018-05-31T12:10:24.377Z,546
2018-05-31T12:11:26.400Z,530
2018-05-31T12:12:28.721Z,280
2018-05-31T12:13:31.129Z,315
2018-05-31T12:14:33.149Z,147
2018-05-31T12:15:35.178Z,130
2018-05-31T12:16:37.200Z,134
2018-05-31T12:17:39.312Z,454
2018-05-31T12:18:41.244Z,466
2018-05-31T12:19:43.271Z,474
2018-05-31T12:20:45.278Z,469
2018-05-31T12:21:47.304Z,426
2018-05-31T12:22:49.613Z,155
2018-05-31T12:23:51.638Z,551
2018-05-31T12:24:53.666Z,530
2018-05-31T12:25:55.696Z,461
2018-05-31T12:26:57.719Z,452
2018-05-31T12:28:00.124Z,443
2018-05-31T12:29:02.148Z,477
2018-05-31T12:30:04.179Z,481
2018-05-31T12:31:06.502Z,121
2018-05-31T12:32:08.576Z,117
2018-05-31T12:33:10.826Z,117
2018-05-31T12:34:12.864Z,129
2018-05-31T12:35:15.156Z,144
2018-05-31T12:36:17.175Z,374
2018-05-31T12:37:19.210Z,424
2018-05-31T12:38:21.233Z,434
2018-05-31T12:39:23.258Z,432
2018-05-31T12:40:25.283Z,403
2018-05-31T12:41:27.308Z,448
2018-05-31T12:42:29.343Z,539
2018-05-31T12:43:31.366Z,520
2018-05-31T12:44:33.380Z,499
2018-05-31T12:45:35.416Z,469
2018-05-31T12:46:37.431Z,461
2018-05-31T12:47:39.845Z,514
2018-05-31T12:48:42.249Z,485
2018-05-31T12:49:44.275Z,448
2018-05-31T12:50:46.293Z,182
2018-05-31T12:51:48.323Z,154
2018-05-31T12:52:50.339Z,144
2018-05-31T12:53:52.759Z,327
2018-05-31T12:54:55.067Z,117
2018-05-31T12:55:57.080Z,117
2018-05-31T12:56:59.105Z,135
2018-05-31T12:58:01.128Z,434
2018-05-31T12:59:03.153Z,418
2018-05-31T13:00:05.470Z,403
2018-05-31T13:01:07.487Z,358
2018-05-31T13:02:09.521Z,353
2018-05-31T13:03:11.850Z,353
2018-05-31T13:04:13.872Z,151
2018-05-31T13:05:15.904Z,184
2018-05-31T13:06:17.930Z,409
2018-05-31T13:07:19.957Z,367
2018-05-31T13:08:21.982Z,376
2018-05-31T13:09:24.012Z,377
2018-05-31T13:10:26.044Z,405
2018-05-31T13:11:28.063Z,424
2018-05-31T13:12:30.091Z,404
2018-05-31T13:13:32.789Z,405
2018-05-31T13:14:34.810Z,390
2018-05-31T13:15:37.410Z,404
2018-05-31T13:16:39.434Z,388
2018-05-31T13:17:41.464Z,378
2018-05-31T13:18:43.495Z,365
2018-05-31T13:19:45.820Z,386
2018-05-31T13:20:47.844Z,401
2018-05-31T13:21:49.872Z,403
2018-05-31T13:22:51.898Z,411
2018-05-31T13:23:53.918Z,414
2018-05-31T13:24:55.952Z,415
2018-05-31T13:25:57.978Z,442
2018-05-31T13:27:00.276Z,432
2018-05-31T13:28:02.304Z,404
2018-05-31T13:29:04.337Z,383
2018-05-31T13:30:06.367Z,378
2018-05-31T13:31:08.395Z,368
2018-05-31T13:32:10.807Z,414
2018-05-31T13:33:12.834Z,462
2018-05-31T13:34:14.868Z,443
2018-05-31T13:35:16.904Z,442
2018-05-31T13:36:18.921Z,466
2018-05-31T13:37:20.965Z,352
2018-05-31T13:38:22.989Z,127
2018-05-31T13:39:25.322Z,132
2018-05-31T13:40:27.360Z,246
2018-05-31T13:41:29.390Z,358
2018-05-31T13:42:31.433Z,255
2018-05-31T13:43:33.471Z,381
2018-05-31T13:44:35.509Z,371
2018-05-31T13:45:37.547Z,350
2018-05-31T13:46:39.885Z,348
2018-05-31T13:47:41.914Z,339
2018-05-31T13:48:43.942Z,337
2018-05-31T13:49:45.970Z,341
2018-05-31T13:50:48.017Z,372
2018-05-31T13:51:50.043Z,374
2018-05-31T13:52:52.088Z,109
2018-05-31T13:53:54.902Z,100
2018-05-31T13:54:56.932Z,95
2018-05-31T13:55:58.985Z,90
2018-05-31T13:57:01.014Z,87
2018-05-31T13:58:03.048Z,85
2018-05-31T13:59:05.076Z,84
2018-05-31T14:00:07.518Z,84
2018-05-31T14:01:09.671Z,85
2018-05-31T14:02:12.360Z,84
2018-05-31T14:03:15.350Z,85
2018-05-31T14:04:17.468Z,89
2018-05-31T14:05:20.025Z,94
2018-05-31T14:06:22.092Z,96
2018-05-31T14:07:24.124Z,96
2018-05-31T14:08:26.865Z,99
2018-05-31T14:09:29.001Z,105
2018-05-31T14:10:34.210Z,111
2018-05-31T14:11:36.865Z,143
2018-05-31T14:12:38.911Z,311
2018-05-31T14:13:41.052Z,138
2018-05-31T14:14:43.139Z,240
2018-05-31T14:15:45.581Z,115
2018-05-31T14:16:47.704Z,365
2018-05-31T14:17:49.813Z,380
2018-05-31T14:18:52.063Z,376
2018-05-31T14:19:54.094Z,364
2018-05-31T14:20:56.197Z,359
2018-05-31T14:21:58.414Z,348
2018-05-31T14:23:00.771Z,336
2018-05-31T14:24:02.831Z,152
2018-05-31T14:25:04.915Z,129
2018-05-31T14:26:06.981Z,134
2018-05-31T14:27:09.336Z,321
2018-05-31T14:28:11.418Z,344
2018-05-31T14:29:13.845Z,332
2018-05-31T14:30:15.913Z,327
2018-05-31T14:31:18.265Z,336
2018-05-31T14:32:20.394Z,321
2018-05-31T14:33:22.470Z,325
2018-05-31T14:34:24.834Z,305
2018-05-31T14:35:26.893Z,314
2018-05-31T14:36:28.958Z,331
2018-05-31T14:37:31.030Z,306
2018-05-31T14:38:33.105Z,283
2018-05-31T14:39:35.178Z,288
2018-05-31T14:40:37.540Z,279